Time;durP1;ratioP1;P1;durP2;ratioP2;P2;SDS_P1;SDS_P2;PMS_P1;PMS_P2;Temp;Humidity;BMP_temperature;BMP_pressure;BME280_temperature;BME280_humidity;BME280_pressure;Samples;Min_cycle;Max_cycle;Signal;HPM_P1;HPM_P2
2021/08/03 00:01:40;;;;;;;5.00;3.23;;;;;;;13.97;100.00;98969.78;10473573;28;20202;-75
2021/08/03 00:06:59;;;;;;;4.40;3.57;;;;;;;13.79;100.00;98969.34;10503732;28;20170;-75
2021/08/03 00:12:18;;;;;;;3.57;3.30;;;;;;;13.76;100.00;98965.44;10503658;28;20194;-76
2021/08/03 00:17:38;;;;;;;3.40;3.10;;;;;;;13.74;100.00;98956.78;10501059;28;20198;-75
2021/08/03 00:23:00;;;;;;;5.07;4.60;;;;;;;13.95;100.00;98959.16;10502652;28;20214;-74
2021/08/03 00:28:20;;;;;;;5.60;5.07;;;;;;;13.90;100.00;98948.56;10501883;28;20191;-75
2021/08/03 00:33:40;;;;;;;4.30;4.03;;;;;;;13.77;100.00;98944.13;10467968;28;20222;-75
2021/08/03 00:38:59;;;;;;;4.97;3.70;;;;;;;13.73;100.00;98943.38;10459928;28;20219;-76
2021/08/03 00:44:18;;;;;;;4.23;3.83;;;;;;;13.73;100.00;98955.22;10460920;28;20176;-75
2021/08/03 00:49:38;;;;;;;7.17;3.33;;;;;;;13.60;100.00;98959.03;10459514;28;20626;-75
2021/08/03 00:54:57;;;;;;;7.00;3.63;;;;;;;13.55;100.00;98960.31;10459410;28;20179;-75
2021/08/03 01:00:16;;;;;;;12.20;3.87;;;;;;;13.63;100.00;98969.22;10461770;28;20214;-75
2021/08/03 01:06:00;;;;;;;3.83;3.40;;;;;;;13.55;100.00;98970.56;10499959;28;20648;-74
2021/08/03 01:11:31;;;;;;;3.90;3.57;;;;;;;13.55;100.00;98954.78;10500407;28;20171;-75
2021/08/03 01:16:56;;;;;;;3.33;3.03;;;;;;;13.58;100.00;98966.97;10499871;28;20580;-74
2021/08/03 01:22:34;;;;;;;5.17;4.50;;;;;;;13.57;100.00;98963.41;10500410;28;20241;-76
2021/08/03 01:28:08;;;;;;;5.10;4.70;;;;;;;13.52;100.00;98961.13;10500681;28;20179;-75
2021/08/03 01:33:30;;;;;;;8.40;5.07;;;;;;;13.46;100.00;98967.56;10468451;28;20188;-75
2021/08/03 01:38:52;;;;;;;4.63;4.30;;;;;;;13.42;100.00;98969.63;10458465;28;20216;-75
2021/08/03 01:44:13;;;;;;;4.77;4.37;;;;;;;13.27;100.00;98960.00;10457998;28;20211;-75
2021/08/03 01:49:36;;;;;;;4.13;3.83;;;;;;;13.22;100.00;98959.69;10458173;28;20616;-74
2021/08/03 01:54:55;;;;;;;5.03;4.63;;;;;;;13.19;100.00;98966.06;10457365;28;20183;-76
2021/08/03 02:00:15;;;;;;;4.50;3.87;;;;;;;13.17;100.00;98972.00;10456578;28;20215;-73
2021/08/03 02:05:34;;;;;;;5.40;3.83;;;;;;;13.16;100.00;98975.19;10457926;28;20172;-75
2021/08/03 02:10:53;;;;;;;4.13;3.73;;;;;;;13.12;100.00;98974.44;10457612;28;20258;-75
2021/08/03 02:16:12;;;;;;;4.20;3.77;;;;;;;13.11;100.00;98978.41;10455765;28;20195;-75
2021/08/03 02:21:31;;;;;;;6.50;4.43;;;;;;;13.12;100.00;98968.94;10457370;28;20211;-75
2021/08/03 02:26:50;;;;;;;7.60;4.53;;;;;;;13.08;100.00;98979.25;10456852;28;20179;-73
2021/08/03 02:32:16;;;;;;;4.73;4.40;;;;;;;13.05;100.00;98971.81;10455857;28;20180;-75
2021/08/03 02:37:41;;;;;;;5.10;4.73;;;;;;;13.07;100.00;98969.41;10455556;28;20184;-75
2021/08/03 02:43:02;;;;;;;5.40;4.90;;;;;;;13.02;100.00;98964.34;10455980;28;20203;-74
2021/08/03 02:48:24;;;;;;;6.33;5.30;;;;;;;13.07;100.00;98963.88;10456579;28;20215;-75
2021/08/03 02:53:51;;;;;;;10.33;4.50;;;;;;;13.07;100.00;98958.38;10496662;28;20175;-74
2021/08/03 02:59:13;;;;;;;8.03;4.90;;;;;;;13.00;100.00;98950.19;10497659;28;20619;-74
2021/08/03 03:05:01;;;;;;;4.83;4.40;;;;;;;12.79;100.00;98951.25;10496221;28;20183;-74
2021/08/03 03:10:25;;;;;;;5.23;4.73;;;;;;;12.78;100.00;98951.66;10496621;28;20269;-74
2021/08/03 03:15:45;;;;;;;4.90;4.60;;;;;;;12.81;100.00;98950.84;10495978;28;20203;-74
2021/08/03 03:21:05;;;;;;;13.23;5.63;;;;;;;12.85;100.00;98944.06;10494465;28;20210;-75
2021/08/03 03:26:28;;;;;;;6.87;5.70;;;;;;;12.89;100.00;98944.81;10496019;28;20182;-75
2021/08/03 03:31:48;;;;;;;5.00;4.60;;;;;;;12.95;100.00;98942.38;10501284;28;20171;-74
2021/08/03 03:37:07;;;;;;;5.47;5.07;;;;;;;13.02;100.00;98945.00;10505104;28;20175;-74
2021/08/03 03:42:32;;;;;;;6.80;6.20;;;;;;;13.06;100.00;98945.75;10503918;28;20371;-74
2021/08/03 03:48:09;;;;;;;6.00;5.40;;;;;;;13.04;100.00;98950.91;10503256;28;20176;-75
2021/08/03 03:53:48;;;;;;;8.43;5.37;;;;;;;13.08;100.00;98959.94;10463062;28;20262;-74
2021/08/03 03:59:10;;;;;;;15.60;5.70;;;;;;;13.14;100.00;98964.53;10461764;28;20610;-74
2021/08/03 04:04:30;;;;;;;13.50;5.83;;;;;;;13.07;100.00;98950.09;10461381;28;20175;-74
2021/08/03 04:10:00;;;;;;;6.80;5.50;;;;;;;13.14;100.00;98949.97;10463104;28;20187;-74
2021/08/03 04:15:19;;;;;;;5.67;5.17;;;;;;;13.23;100.00;98941.94;10502172;28;20198;-74
2021/08/03 04:20:38;;;;;;;12.70;5.20;;;;;;;13.33;100.00;98941.75;10503184;28;20214;-75
2021/08/03 04:25:57;;;;;;;9.80;6.33;;;;;;;13.44;100.00;98942.34;10502022;28;20524;-75
2021/08/03 04:31:16;;;;;;;6.20;5.60;;;;;;;13.43;100.00;98951.84;10501810;28;20170;-76
2021/08/03 04:36:35;;;;;;;10.00;5.53;;;;;;;13.50;100.00;98942.63;10501682;28;20178;-75
2021/08/03 04:41:55;;;;;;;7.30;6.00;;;;;;;13.59;100.00;98933.38;10482736;28;20697;-75
2021/08/03 04:47:15;;;;;;;6.97;4.63;;;;;;;13.73;100.00;98940.63;10458577;28;20171;-74
2021/08/03 04:52:33;;;;;;;6.57;4.90;;;;;;;13.89;100.00;98935.19;10459628;28;20662;-75
2021/08/03 04:57:52;;;;;;;8.63;5.90;;;;;;;13.99;100.00;98934.97;10460470;28;20187;-75
2021/08/03 05:03:13;;;;;;;7.27;6.57;;;;;;;14.11;100.00;98934.38;10458355;28;20210;-77
2021/08/03 05:08:32;;;;;;;5.47;5.07;;;;;;;14.19;100.00;98933.03;10460104;28;20183;-75
2021/08/03 05:13:51;;;;;;;6.40;5.80;;;;;;;14.33;100.00;98926.41;10478817;28;20207;-75
2021/08/03 05:19:10;;;;;;;7.03;6.37;;;;;;;14.44;100.00;98924.97;10492452;28;20178;-75
2021/08/03 05:24:29;;;;;;;8.03;5.97;;;;;;;14.49;100.00;98919.72;10507360;28;20185;-73
2021/08/03 05:29:48;;;;;;;7.33;6.43;;;;;;;14.65;100.00;98921.72;10531329;28;20187;-75
2021/08/03 05:35:08;;;;;;;6.93;5.70;;;;;;;14.70;100.00;98924.78;10499376;28;20214;-74
2021/08/03 05:40:26;;;;;;;8.37;7.57;;;;;;;14.67;100.00;98922.84;10463214;28;20231;-75
2021/08/03 05:45:46;;;;;;;7.90;6.60;;;;;;;14.86;100.00;98929.56;10457393;28;20172;-75
2021/08/03 05:51:05;;;;;;;7.37;6.53;;;;;;;15.12;100.00;98934.06;10458216;28;20191;-76
2021/08/03 05:56:24;;;;;;;7.67;6.87;;;;;;;15.17;100.00;98918.50;10458195;28;20163;-75
2021/08/03 06:01:44;;;;;;;8.67;7.87;;;;;;;15.29;100.00;98919.81;10455406;28;20207;-75
2021/08/03 06:07:06;;;;;;;9.13;7.90;;;;;;;15.48;100.00;98908.63;10472830;28;20178;-76
2021/08/03 06:12:26;;;;;;;10.40;8.13;;;;;;;15.60;100.00;98916.22;10498786;28;20543;-76
2021/08/03 06:17:51;;;;;;;15.70;8.67;;;;;;;15.68;100.00;98905.72;10497462;28;20186;-75
2021/08/03 06:23:12;;;;;;;12.43;8.60;;;;;;;15.86;100.00;98909.56;10498105;28;20202;-74
2021/08/03 06:28:32;;;;;;;12.30;8.80;;;;;;;16.12;100.00;98911.97;10497056;28;20167;-76
2021/08/03 06:33:52;;;;;;;9.77;8.80;;;;;;;16.29;100.00;98916.28;10497010;28;20175;-74
2021/08/03 06:39:11;;;;;;;12.43;9.00;;;;;;;16.65;100.00;98908.44;10463411;28;20215;-76
2021/08/03 06:44:52;;;;;;;10.73;7.53;;;;;;;17.05;100.00;98906.78;10456003;28;20214;-74
2021/08/03 06:50:14;;;;;;;10.47;8.93;;;;;;;17.24;100.00;98917.63;10456264;28;20190;-74
2021/08/03 06:55:39;;;;;;;9.70;8.13;;;;;;;17.25;100.00;98918.41;10463348;28;20187;-74
2021/08/03 07:01:01;;;;;;;10.60;8.70;;;;;;;17.46;96.12;98926.84;10457284;28;20578;-74
2021/08/03 07:06:23;;;;;;;8.97;8.17;;;;;;;17.42;97.87;98928.19;10454445;28;20172;-74
2021/08/03 07:11:43;;;;;;;8.67;7.87;;;;;;;17.85;96.30;98935.41;10454936;28;20171;-76
2021/08/03 07:17:04;;;;;;;9.50;8.60;;;;;;;18.19;95.19;98926.25;10465344;28;20178;-75
2021/08/03 07:22:24;;;;;;;8.23;7.40;;;;;;;18.30;90.94;98926.66;10496924;28;20218;-75
2021/08/03 07:27:44;;;;;;;10.00;8.10;;;;;;;18.22;92.68;98926.13;10497059;28;20171;-74
2021/08/03 07:33:03;;;;;;;7.60;7.00;;;;;;;18.35;94.23;98928.84;10495861;28;20202;-75
2021/08/03 07:38:22;;;;;;;7.53;6.70;;;;;;;18.41;91.12;98928.59;10496732;28;20715;-75
2021/08/03 07:43:40;;;;;;;9.20;6.43;;;;;;;18.36;93.24;98931.22;10496125;28;20210;-76
2021/08/03 07:49:03;;;;;;;6.00;5.50;;;;;;;18.71;92.61;98936.22;10467811;28;20179;-76
2021/08/03 07:54:22;;;;;;;7.03;6.40;;;;;;;19.18;87.79;98938.78;10455002;28;20184;-75
2021/08/03 07:59:41;;;;;;;8.17;6.20;;;;;;;19.93;82.53;98941.53;10455037;28;20176;-74
2021/08/03 08:05:00;;;;;;;6.37;5.73;;;;;;;20.33;81.45;98929.75;10453909;28;20183;-75
2021/08/03 08:10:19;;;;;;;6.20;5.60;;;;;;;20.38;79.12;98920.72;10453880;28;20183;-74
2021/08/03 08:15:40;;;;;;;6.70;5.80;;;;;;;20.73;78.36;98916.31;10456823;28;20211;-74
2021/08/03 08:20:59;;;;;;;5.60;5.13;;;;;;;20.82;76.74;98921.91;10502791;28;20669;-76
2021/08/03 08:26:18;;;;;;;5.93;5.33;;;;;;;21.10;76.90;98909.34;10502193;28;20253;-76
2021/08/03 08:31:38;;;;;;;6.03;5.43;;;;;;;21.41;74.83;98904.19;10501738;28;20213;-76
2021/08/03 08:36:57;;;;;;;5.90;5.40;;;;;;;21.70;71.79;98902.31;10502859;28;20167;-75
2021/08/03 08:42:19;;;;;;;5.50;5.20;;;;;;;21.53;69.17;98894.78;10501741;28;20712;-75
2021/08/03 08:47:42;;;;;;;6.60;5.43;;;;;;;22.05;69.77;98892.06;10481737;28;20645;-76
2021/08/03 08:53:02;;;;;;;7.83;4.83;;;;;;;22.15;67.44;98890.75;10460701;28;20191;-76
2021/08/03 08:58:20;;;;;;;4.57;4.17;;;;;;;22.66;69.42;98884.28;10460753;28;20254;-75
2021/08/03 09:03:41;;;;;;;4.63;4.10;;;;;;;23.04;65.76;98887.00;10457489;28;20211;-75
2021/08/03 09:09:12;;;;;;;4.87;4.40;;;;;;;22.57;66.21;98881.59;10460114;28;20547;-74
2021/08/03 09:14:41;;;;;;;4.63;4.30;;;;;;;22.64;67.90;98884.03;10459936;28;20196;-75
2021/08/03 09:20:12;;;;;;;5.63;4.27;;;;;;;22.65;65.93;98884.78;10461624;28;20195;-75
2021/08/03 09:25:32;;;;;;;5.40;4.37;;;;;;;22.69;63.62;98880.53;10458501;28;20266;-75
2021/08/03 09:30:51;;;;;;;3.73;3.47;;;;;;;22.87;64.91;98885.13;10458012;28;20179;-74
2021/08/03 09:36:11;;;;;;;5.20;3.93;;;;;;;22.86;65.12;98883.59;10458143;28;20168;-76
2021/08/03 09:41:46;;;;;;;2.97;2.77;;;;;;;21.37;69.45;98870.78;10456999;28;20254;-75
2021/08/03 09:47:05;;;;;;;3.57;3.20;;;;;;;21.03;70.05;98878.91;10471988;28;20179;-75
2021/08/03 09:52:27;;;;;;;2.73;2.53;;;;;;;21.26;68.83;98873.34;10478574;28;20179;-75
2021/08/03 09:57:47;;;;;;;2.73;2.53;;;;;;;21.52;67.51;98871.63;10458092;28;20179;-75
2021/08/03 10:03:06;;;;;;;6.63;2.70;;;;;;;21.60;66.97;98858.06;10456296;28;20207;-75
2021/08/03 10:08:26;;;;;;;3.77;2.80;;;;;;;21.51;66.39;98858.88;10499628;28;20198;-74
2021/08/03 10:13:46;;;;;;;4.00;2.40;;;;;;;21.53;67.34;98852.81;10497904;28;20224;-74
2021/08/03 10:19:05;;;;;;;2.37;2.17;;;;;;;20.86;71.50;98841.41;10497544;28;20175;-75
2021/08/03 10:24:31;;;;;;;3.23;2.37;;;;;;;21.00;69.70;98846.31;10494838;28;20218;-74
2021/08/03 10:29:53;;;;;;;2.63;2.10;;;;;;;20.56;68.66;98839.66;10498148;28;20261;-74
2021/08/03 10:35:15;;;;;;;2.10;1.90;;;;;;;20.20;67.48;98839.75;10498094;28;20629;-74
2021/08/03 10:41:02;;;;;;;1.87;1.77;;;;;;;19.72;71.64;98834.38;10496769;28;20222;-76
2021/08/03 10:46:26;;;;;;;2.47;2.27;;;;;;;18.97;83.51;98879.03;10493597;28;20643;-79
2021/08/03 10:51:46;;;;;;;7.93;5.10;;;;;;;17.83;100.00;98890.56;10491888;28;20183;-78
2021/08/03 10:57:05;;;;;;;7.27;4.50;;;;;;;17.27;100.00;98894.50;10504274;28;20225;-79
2021/08/03 11:02:24;;;;;;;10.40;3.80;;;;;;;16.77;100.00;98899.31;10483673;28;20202;-76
2021/08/03 11:07:43;;;;;;;3.00;2.20;;;;;;;16.58;100.00;98894.00;10496523;28;20178;-78
2021/08/03 11:13:03;;;;;;;2.97;2.30;;;;;;;16.74;100.00;98891.09;10497259;28;20194;-80
2021/08/03 11:18:39;;;;;;;6.33;2.30;;;;;;;16.83;100.00;98889.22;10495103;28;20530;-78
2021/08/03 11:23:58;;;;;;;2.23;2.10;;;;;;;17.37;100.00;98873.16;10495583;28;20672;-78
2021/08/03 11:29:19;;;;;;;2.23;2.13;;;;;;;17.63;100.00;98856.72;10495929;28;20253;-77
2021/08/03 11:34:42;;;;;;;2.03;1.93;;;;;;;18.13;100.00;98848.13;10495729;28;20187;-77
2021/08/03 11:40:01;;;;;;;9.83;2.17;;;;;;;18.16;91.20;98849.22;10453763;28;20230;-79
2021/08/03 11:45:24;;;;;;;1.70;1.50;;;;;;;18.42;92.76;98848.59;10454089;28;20176;-78
2021/08/03 11:50:43;;;;;;;1.60;1.50;;;;;;;18.80;93.68;98835.91;10458143;28;20588;-78
2021/08/03 11:56:02;;;;;;;2.33;1.20;;;;;;;18.29;89.10;98844.34;10463006;28;20273;-78
2021/08/03 12:01:21;;;;;;;1.97;1.40;;;;;;;18.77;87.73;98828.47;10460435;28;20685;-78
2021/08/03 12:06:42;;;;;;;1.70;1.30;;;;;;;18.55;82.72;98813.84;10478452;28;20186;-77
2021/08/03 12:12:01;;;;;;;1.77;1.63;;;;;;;18.50;80.06;98810.88;10503801;28;20195;-76
2021/08/03 12:17:27;;;;;;;1.60;1.30;;;;;;;19.39;80.88;98786.00;10502264;28;20533;-79
2021/08/03 12:22:47;;;;;;;1.30;1.20;;;;;;;20.05;73.87;98769.03;10502303;28;20210;-78
2021/08/03 12:28:06;;;;;;;1.30;1.17;;;;;;;20.92;71.43;98759.19;10461620;28;20179;-77
2021/08/03 12:33:30;;;;;;;1.53;1.43;;;;;;;21.59;70.11;98756.53;10459377;28;20175;-76
2021/08/03 12:39:27;;;;;;;1.50;1.40;;;;;;;22.04;63.41;98745.63;10494553;28;20222;-76
2021/08/03 12:44:48;;;;;;;2.30;1.10;;;;;;;23.84;62.70;98721.31;10492861;28;20293;-75
2021/08/03 12:50:10;;;;;;;1.63;1.17;;;;;;;24.57;60.56;98727.81;10502314;28;20607;-75
2021/08/03 12:55:42;;;;;;;2.17;1.37;;;;;;;24.64;53.97;98732.97;10496573;28;20183;-75
2021/08/03 13:01:15;;;;;;;1.20;1.00;;;;;;;25.24;58.42;98747.41;10496513;28;20202;-77
2021/08/03 13:06:53;;;;;;;2.70;1.10;;;;;;;24.28;55.84;98753.41;10501540;28;20174;-76
2021/08/03 13:12:13;;;;;;;1.30;1.20;;;;;;;24.82;56.02;98744.63;10501581;28;20195;-76
2021/08/03 13:17:32;;;;;;;1.30;1.20;;;;;;;22.67;58.18;98758.88;10499984;28;20186;-76
2021/08/03 13:22:51;;;;;;;1.70;1.10;;;;;;;23.16;60.99;98756.03;10491463;28;20210;-75
2021/08/03 13:28:10;;;;;;;1.20;1.00;;;;;;;23.26;61.25;98760.25;10474176;28;20222;-76
2021/08/03 13:33:29;;;;;;;1.40;1.27;;;;;;;22.91;58.77;98762.28;10464598;28;20649;-77
2021/08/03 13:38:48;;;;;;;1.37;1.27;;;;;;;23.94;56.40;98748.75;10458651;28;20581;-76
2021/08/03 13:44:07;;;;;;;2.53;1.17;;;;;;;24.21;54.90;98749.00;10457333;28;20211;-75
2021/08/03 13:49:27;;;;;;;1.50;1.30;;;;;;;24.84;53.82;98747.69;10457017;28;20630;-76
2021/08/03 13:54:46;;;;;;;1.20;0.97;;;;;;;24.32;54.67;98753.94;10463122;28;20606;-74
2021/08/03 14:00:06;;;;;;;2.83;1.23;;;;;;;24.12;54.30;98754.03;10483522;28;20176;-74
2021/08/03 14:05:25;;;;;;;2.40;1.10;;;;;;;22.67;57.50;98775.72;10478350;28;20183;-76
2021/08/03 14:10:45;;;;;;;2.17;1.10;;;;;;;22.52;57.03;98755.34;10457011;28;20199;-76
2021/08/03 14:16:08;;;;;;;1.40;1.30;;;;;;;23.64;54.77;98749.44;10469052;28;20273;-76
2021/08/03 14:21:27;;;;;;;1.33;1.23;;;;;;;23.01;54.75;98742.03;10497496;28;20657;-76
2021/08/03 14:26:46;;;;;;;1.50;1.20;;;;;;;23.62;55.05;98738.69;10496853;28;20191;-75
2021/08/03 14:32:06;;;;;;;2.07;1.23;;;;;;;23.67;55.92;98728.78;10496580;28;20183;-76
2021/08/03 14:37:25;;;;;;;1.63;1.53;;;;;;;22.62;56.75;98728.72;10497718;28;20174;-75
2021/08/03 14:42:45;;;;;;;1.60;1.37;;;;;;;21.93;58.66;98722.22;10497153;28;20676;-75
2021/08/03 14:48:06;;;;;;;1.40;1.30;;;;;;;22.00;59.03;98703.03;10467845;28;20234;-75
2021/08/03 14:53:25;;;;;;;2.33;1.43;;;;;;;22.25;57.32;98701.66;10454857;28;20179;-75
2021/08/03 14:58:45;;;;;;;1.67;1.33;;;;;;;22.00;61.76;98694.63;10455970;28;20179;-75
2021/08/03 15:04:04;;;;;;;1.90;1.70;;;;;;;21.52;62.37;98698.09;10453950;28;20207;-76
2021/08/03 15:09:23;;;;;;;1.73;1.53;;;;;;;21.67;61.21;98688.44;10455659;28;20666;-76
2021/08/03 15:14:42;;;;;;;3.13;1.60;;;;;;;22.15;61.54;98678.53;10462386;28;20537;-75
2021/08/03 15:20:03;;;;;;;1.50;1.40;;;;;;;24.17;58.93;98657.72;10495863;28;20186;-76
2021/08/03 15:25:23;;;;;;;1.40;1.20;;;;;;;25.97;54.20;98661.25;10499504;28;20178;-76
2021/08/03 15:30:42;;;;;;;1.30;1.20;;;;;;;25.68;51.29;98663.81;10504063;28;20672;-76
2021/08/03 15:36:01;;;;;;;1.37;1.27;;;;;;;24.48;55.85;98663.31;10504932;28;20187;-76
2021/08/03 15:41:20;;;;;;;1.47;1.37;;;;;;;24.89;53.41;98673.00;10503301;28;20269;-76
2021/08/03 15:46:39;;;;;;;1.33;1.23;;;;;;;23.49;57.19;98664.53;10502967;28;20252;-75
2021/08/03 15:51:58;;;;;;;2.23;1.30;;;;;;;22.77;61.72;98664.94;10503323;28;20206;-75
2021/08/03 15:57:17;;;;;;;1.30;1.20;;;;;;;22.84;61.71;98665.28;10504598;28;20170;-75
2021/08/03 16:02:36;;;;;;;1.40;1.30;;;;;;;22.63;60.68;98658.13;10502575;28;20206;-77
2021/08/03 16:07:55;;;;;;;1.20;1.10;;;;;;;22.36;61.28;98663.38;10489966;28;20246;-76
2021/08/03 16:13:14;;;;;;;1.60;1.50;;;;;;;21.78;65.45;98660.66;10483200;28;20230;-76
2021/08/03 16:18:45;;;;;;;1.60;1.37;;;;;;;21.20;75.13;98648.63;10459905;28;20163;-78
2021/08/03 16:24:04;;;;;;;1.90;1.63;;;;;;;20.43;79.37;98662.25;10470426;28;20285;-80
2021/08/03 16:29:23;;;;;;;3.40;2.47;;;;;;;19.91;91.33;98659.97;10503174;28;20202;-77
2021/08/03 16:34:51;;;;;;;5.63;2.17;;;;;;;19.06;96.65;98658.00;10501804;28;20565;-80
2021/08/03 16:40:11;;;;;;;8.60;2.10;;;;;;;18.62;97.95;98654.75;10501178;28;20598;-76
2021/08/03 16:45:30;;;;;;;6.23;1.97;;;;;;;18.36;100.00;98671.38;10501338;28;20178;-78
2021/08/03 16:50:50;;;;;;;3.60;2.27;;;;;;;18.41;100.00;98677.91;10501291;28;20553;-78
2021/08/03 16:56:10;;;;;;;2.20;2.07;;;;;;;18.45;100.00;98695.25;10502206;28;20170;-77
2021/08/03 17:01:37;;;;;;;1.97;1.87;;;;;;;18.32;100.00;98698.63;10483870;28;20223;-79
2021/08/03 17:07:12;;;;;;;2.17;2.03;;;;;;;18.22;100.00;98705.41;10460143;28;20179;-77
2021/08/03 17:12:37;;;;;;;6.13;4.70;;;;;;;18.37;100.00;98698.81;10460239;28;20199;-77
2021/08/03 17:18:04;;;;;;;2.40;2.20;;;;;;;18.39;100.00;98695.56;10457528;28;20214;-78
2021/08/03 17:23:29;;;;;;;13.57;7.30;;;;;;;18.33;100.00;98708.53;10459092;28;20282;-76
2021/08/03 17:28:49;;;;;;;2.77;2.47;;;;;;;18.24;100.00;98708.50;10459452;28;20175;-77
2021/08/03 17:34:11;;;;;;;2.33;2.03;;;;;;;18.02;100.00;98704.97;10457928;28;20629;-77
2021/08/03 17:39:30;;;;;;;2.70;2.33;;;;;;;18.03;100.00;98695.38;10458772;28;20218;-76
2021/08/03 17:44:49;;;;;;;3.30;3.00;;;;;;;18.10;100.00;98695.09;10458204;28;20686;-77
2021/08/03 17:50:11;;;;;;;2.13;2.03;;;;;;;17.97;100.00;98697.22;10458319;28;20174;-79
2021/08/03 17:55:30;;;;;;;4.40;1.90;;;;;;;17.85;100.00;98712.78;10476203;28;20187;-78
2021/08/03 18:00:50;;;;;;;2.27;2.17;;;;;;;17.75;100.00;98711.19;10498045;28;20202;-79
2021/08/03 18:06:09;;;;;;;2.63;2.43;;;;;;;17.50;100.00;98727.25;10499209;28;20261;-78
2021/08/03 18:11:29;;;;;;;2.97;2.77;;;;;;;17.21;100.00;98712.81;10498943;28;20195;-78
2021/08/03 18:16:49;;;;;;;2.53;2.27;;;;;;;17.16;100.00;98710.59;10496937;28;20206;-76
2021/08/03 18:22:09;;;;;;;2.10;2.00;;;;;;;17.06;100.00;98714.53;10479523;28;20203;-78
2021/08/03 18:27:32;;;;;;;4.10;3.60;;;;;;;16.80;100.00;98715.84;10457186;28;20176;-80
2021/08/03 18:33:08;;;;;;;3.30;3.00;;;;;;;16.65;100.00;98718.78;10454741;28;20621;-77
2021/08/03 18:38:29;;;;;;;3.13;2.83;;;;;;;16.66;100.00;98709.22;10456668;28;20219;-79
2021/08/03 18:43:52;;;;;;;2.90;2.30;;;;;;;16.64;100.00;98706.16;10456347;28;20199;-80
2021/08/03 18:49:11;;;;;;;3.90;3.00;;;;;;;16.64;100.00;98706.16;10455168;28;20207;-81
2021/08/03 18:54:31;;;;;;;3.90;2.63;;;;;;;16.68;100.00;98701.22;10480672;28;20573;-76
2021/08/03 18:59:51;;;;;;;3.50;3.30;;;;;;;16.70;100.00;98702.31;10496806;28;20621;-79
2021/08/03 19:05:17;;;;;;;2.97;2.77;;;;;;;16.64;100.00;98708.91;10496650;28;20209;-78
2021/08/03 19:10:37;;;;;;;4.60;2.90;;;;;;;16.33;100.00;98705.19;10497257;28;20559;-77
2021/08/03 19:16:01;;;;;;;4.03;3.73;;;;;;;16.36;100.00;98709.84;10495287;28;20187;-78
2021/08/03 19:21:25;;;;;;;3.90;3.60;;;;;;;16.41;100.00;98720.38;10497001;28;20680;-77
2021/08/03 19:26:46;;;;;;;3.60;3.00;;;;;;;16.17;100.00;98736.59;10455673;28;20187;-76
2021/08/03 19:32:10;;;;;;;2.93;2.73;;;;;;;16.13;100.00;98737.94;10454484;28;20203;-78
2021/08/03 19:37:29;;;;;;;3.07;2.87;;;;;;;16.18;100.00;98734.59;10454281;28;20690;-78
2021/08/03 19:42:49;;;;;;;3.13;2.83;;;;;;;16.07;100.00;98739.72;10455112;28;20215;-77
2021/08/03 19:48:15;;;;;;;2.90;2.70;;;;;;;16.03;100.00;98744.56;10453976;28;20176;-78
2021/08/03 19:53:35;;;;;;;3.30;3.00;;;;;;;16.08;100.00;98755.13;10473741;28;20191;-77
2021/08/03 19:58:59;;;;;;;3.67;3.37;;;;;;;16.03;100.00;98753.66;10495493;28;20593;-77
2021/08/03 20:04:19;;;;;;;2.83;2.63;;;;;;;15.98;100.00;98761.78;10493451;28;20327;-76
2021/08/03 20:09:40;;;;;;;3.20;2.90;;;;;;;15.96;100.00;98762.22;10495706;28;20203;-76
2021/08/03 20:14:59;;;;;;;3.20;2.53;;;;;;;15.91;100.00;98775.88;10502857;28;20179;-76
2021/08/03 20:20:23;;;;;;;5.27;2.40;;;;;;;15.84;100.00;98770.53;10502543;28;20615;-79
2021/08/03 20:25:54;;;;;;;3.33;3.03;;;;;;;15.72;100.00;98767.72;10465827;28;20183;-78
2021/08/03 20:31:15;;;;;;;5.40;2.67;;;;;;;15.63;100.00;98771.16;10459803;28;20171;-76
2021/08/03 20:36:34;;;;;;;4.23;3.00;;;;;;;15.69;100.00;98774.16;10468499;28;20232;-77
2021/08/03 20:41:53;;;;;;;6.37;3.07;;;;;;;15.75;100.00;98775.94;10502073;28;20627;-79
2021/08/03 20:47:14;;;;;;;5.13;2.73;;;;;;;15.80;100.00;98786.50;10501433;28;20191;-76
2021/08/03 20:52:35;;;;;;;4.10;3.13;;;;;;;15.76;100.00;98794.13;10492151;28;20184;-77
2021/08/03 20:57:56;;;;;;;4.97;2.67;;;;;;;15.85;100.00;98794.28;10460065;28;20183;-77
2021/08/03 21:03:36;;;;;;;6.13;2.90;;;;;;;15.78;100.00;98794.47;10457810;28;20687;-78
2021/08/03 21:09:00;;;;;;;8.33;3.23;;;;;;;15.85;100.00;98794.28;10460246;28;20203;-77
2021/08/03 21:14:19;;;;;;;3.47;2.83;;;;;;;16.09;100.00;98801.06;10458584;28;20183;-79
2021/08/03 21:19:39;;;;;;;4.10;3.80;;;;;;;15.96;100.00;98794.75;10458616;28;20175;-79
2021/08/03 21:25:00;;;;;;;7.10;3.70;;;;;;;15.91;100.00;98811.94;10487456;28;20205;-80
2021/08/03 21:30:19;;;;;;;3.77;3.57;;;;;;;15.89;100.00;98814.38;10499443;28;20214;-78
2021/08/03 21:35:37;;;;;;;7.80;4.00;;;;;;;15.80;100.00;98802.34;10499799;28;20178;-78
2021/08/03 21:40:56;;;;;;;3.90;3.60;;;;;;;15.81;100.00;98801.94;10499628;28;20226;-76
2021/08/03 21:46:15;;;;;;;6.10;4.10;;;;;;;15.77;100.00;98808.78;10497951;28;20175;-77
2021/08/03 21:51:34;;;;;;;4.23;3.40;;;;;;;15.77;100.00;98811.56;10498461;28;20163;-76
2021/08/03 21:56:53;;;;;;;5.30;4.03;;;;;;;15.75;100.00;98802.91;10487266;28;20626;-75
2021/08/03 22:02:12;;;;;;;7.77;4.50;;;;;;;15.72;100.00;98807.34;10497278;28;20289;-79
2021/08/03 22:07:31;;;;;;;6.67;4.03;;;;;;;15.69;100.00;98808.22;10498286;28;20198;-78
2021/08/03 22:12:50;;;;;;;4.83;4.40;;;;;;;15.60;100.00;98810.84;10498309;28;20174;-78
2021/08/03 22:18:09;;;;;;;5.20;4.77;;;;;;;15.51;100.00;98802.38;10497648;28;20202;-78
2021/08/03 22:23:29;;;;;;;4.40;3.73;;;;;;;15.51;100.00;98809.94;10478852;28;20684;-77
2021/08/03 22:28:48;;;;;;;4.43;4.13;;;;;;;15.60;100.00;98808.06;10457200;28;20179;-78
2021/08/03 22:34:07;;;;;;;5.77;3.50;;;;;;;15.57;100.00;98805.41;10454903;28;20168;-77
2021/08/03 22:39:26;;;;;;;4.40;4.10;;;;;;;15.55;100.00;98814.16;10455607;28;20223;-79
2021/08/03 22:44:45;;;;;;;8.00;4.37;;;;;;;15.56;100.00;98806.59;10456170;28;20203;-78
2021/08/03 22:50:05;;;;;;;5.37;3.50;;;;;;;15.52;100.00;98801.16;10456724;28;20176;-77
2021/08/03 22:55:25;;;;;;;6.60;3.43;;;;;;;15.51;100.00;98804.38;10491269;28;20182;-79
2021/08/03 23:00:44;;;;;;;5.27;3.20;;;;;;;15.52;100.00;98798.38;10496453;28;20674;-77
2021/08/03 23:06:03;;;;;;;4.40;4.00;;;;;;;15.44;100.00;98797.03;10496501;28;20234;-78
2021/08/03 23:11:21;;;;;;;4.27;3.97;;;;;;;15.37;100.00;98791.69;10497429;28;20179;-76
2021/08/03 23:16:40;;;;;;;4.43;3.73;;;;;;;15.48;100.00;98803.28;10495992;28;20174;-76
2021/08/03 23:21:59;;;;;;;4.20;3.80;;;;;;;15.50;100.00;98800.84;10490129;28;20210;-76
2021/08/03 23:27:18;;;;;;;4.30;3.80;;;;;;;15.45;100.00;98793.06;10455690;28;20167;-76
2021/08/03 23:32:37;;;;;;;5.03;3.50;;;;;;;15.51;100.00;98798.84;10453470;28;20674;-77
2021/08/03 23:37:56;;;;;;;4.70;3.97;;;;;;;15.49;100.00;98804.03;10454436;28;20871;-76
2021/08/03 23:43:15;;;;;;;3.67;3.47;;;;;;;15.46;100.00;98800.16;10454137;28;20207;-78
2021/08/03 23:48:34;;;;;;;4.00;3.37;;;;;;;15.38;100.00;98798.78;10460269;28;20171;-76
2021/08/03 23:53:53;;;;;;;3.93;3.63;;;;;;;15.39;100.00;98803.13;10485915;28;20187;-77
2021/08/03 23:59:12;;;;;;;3.90;3.27;;;;;;;15.30;100.00;98805.75;10504410;28;20179;-78
